createdAt,value
2023-03-05T00:01:09.950Z,8.20
2023-03-05T00:06:08.962Z,8.48
2023-03-05T00:11:17.284Z,8.06
2023-03-05T00:16:24.903Z,8.34
2023-03-05T00:21:25.794Z,7.83
2023-03-05T00:26:21.931Z,8.48
2023-03-05T00:31:19.747Z,7.47
2023-03-05T00:36:17.944Z,7.43
2023-03-05T00:41:11.969Z,7.86
2023-03-05T00:46:08.954Z,8.45
2023-03-05T00:51:10.496Z,7.72
2023-03-05T00:56:06.473Z,8.40
2023-03-05T01:01:12.822Z,7.52
2023-03-05T01:06:17.683Z,7.21
2023-03-05T01:11:16.397Z,6.92
2023-03-05T01:16:09.947Z,8.33
2023-03-05T01:21:21.509Z,7.92
2023-03-05T01:26:17.485Z,7.72
2023-03-05T01:31:15.486Z,7.07
2023-03-05T01:36:13.543Z,7.03
2023-03-05T01:41:34.549Z,6.97
2023-03-05T01:46:32.505Z,7.67
2023-03-05T01:51:32.118Z,7.30
2023-03-05T01:56:30.932Z,6.87
2023-03-05T02:01:24.766Z,7.61
2023-03-05T02:06:23.730Z,6.76
2023-03-05T02:11:21.985Z,6.85
2023-03-05T02:16:19.756Z,7.95
2023-03-05T02:21:28.147Z,7.62
2023-03-05T02:26:21.763Z,7.42
2023-03-05T02:31:20.049Z,6.29
2023-03-05T02:36:23.846Z,6.30
2023-03-05T02:41:17.646Z,7.05
2023-03-05T02:46:13.270Z,7.03
2023-03-05T02:51:08.673Z,6.32
2023-03-05T02:56:03.627Z,7.10
2023-03-05T03:01:00.265Z,7.14
2023-03-05T03:05:53.615Z,6.48
2023-03-05T03:10:46.915Z,7.47
2023-03-05T03:15:45.209Z,7.30
2023-03-05T03:20:39.323Z,6.26
2023-03-05T03:25:32.906Z,7.11
2023-03-05T03:30:28.459Z,6.86
2023-03-05T03:35:23.226Z,7.31
2023-03-05T03:40:16.605Z,6.77
2023-03-05T03:45:13.971Z,7.07
2023-03-05T03:50:13.451Z,7.36
2023-03-05T03:55:12.216Z,6.44
2023-03-05T04:00:09.295Z,6.95
2023-03-05T04:05:09.127Z,6.61
2023-03-05T04:10:02.534Z,6.69
2023-03-05T04:14:59.501Z,7.25
2023-03-05T04:19:58.766Z,5.80
2023-03-05T04:24:52.164Z,6.58
2023-03-05T04:29:45.804Z,5.92
2023-03-05T04:34:42.990Z,5.85
2023-03-05T04:39:39.333Z,7.08
2023-03-05T04:44:32.826Z,7.06
2023-03-05T04:49:26.353Z,6.31
2023-03-05T04:54:21.209Z,6.83
2023-03-05T04:59:16.880Z,5.68
2023-03-05T05:04:10.430Z,6.46
2023-03-05T05:09:04.055Z,5.57
2023-03-05T05:14:04.546Z,6.36
2023-03-05T05:19:00.003Z,5.82
2023-03-05T05:23:55.451Z,6.48
2023-03-05T05:29:08.595Z,5.80
2023-03-05T05:34:02.122Z,6.94
2023-03-05T05:39:06.169Z,6.11
2023-03-05T05:44:03.684Z,6.36
2023-03-05T05:48:57.113Z,5.49
2023-03-05T05:53:52.987Z,5.68
2023-03-05T05:58:49.347Z,6.25
2023-03-05T06:03:44.545Z,6.60
2023-03-05T06:08:37.917Z,6.07
2023-03-05T06:13:34.046Z,5.97
2023-03-05T06:18:29.863Z,6.15
2023-03-05T06:23:27.337Z,6.80
2023-03-05T06:28:21.845Z,6.95
2023-03-05T06:33:15.406Z,7.26
2023-03-05T06:38:09.462Z,7.14
2023-03-05T06:43:04.210Z,7.41
2023-03-05T06:47:57.365Z,7.73
2023-03-05T06:52:51.061Z,8.10
2023-03-05T06:57:44.157Z,8.16
2023-03-05T07:02:40.171Z,7.85
2023-03-05T07:07:34.169Z,8.49
2023-03-05T07:12:27.652Z,8.04
2023-03-05T07:17:20.806Z,8.66
2023-03-05T07:22:16.380Z,8.55
2023-03-05T07:27:09.466Z,8.65
2023-03-05T07:32:02.693Z,8.88
2023-03-05T07:36:55.913Z,8.96
2023-03-05T07:41:51.796Z,8.94
2023-03-05T07:46:53.271Z,8.96
2023-03-05T07:51:46.386Z,9.21
2023-03-05T07:56:39.516Z,8.96
2023-03-05T08:01:34.333Z,9.31
2023-03-05T08:06:27.505Z,9.19
2023-03-05T08:11:20.780Z,9.27
2023-03-05T08:16:16.352Z,9.63
2023-03-05T08:21:19.310Z,9.62
2023-03-05T08:26:14.533Z,9.87
2023-03-05T08:31:10.797Z,9.99
2023-03-05T08:36:04.151Z,9.64
2023-03-05T08:40:58.758Z,10.25
2023-03-05T08:45:53.720Z,10.48
2023-03-05T08:50:47.291Z,10.56
2023-03-05T08:55:40.733Z,10.80
2023-03-05T09:00:35.947Z,10.76
2023-03-05T09:05:29.236Z,11.44
2023-03-05T09:10:22.547Z,12.47
2023-03-05T09:15:15.988Z,13.10
2023-03-05T09:20:14.624Z,13.95
2023-03-05T09:25:09.226Z,14.82
2023-03-05T09:30:02.633Z,15.39
2023-03-05T09:34:55.862Z,15.87
2023-03-05T09:39:50.445Z,15.94
2023-03-05T09:44:52.747Z,16.51
2023-03-05T09:49:56.574Z,16.39
2023-03-05T09:54:55.777Z,15.99
2023-03-05T09:59:53.038Z,15.48
2023-03-05T10:04:52.118Z,15.04
2023-03-05T10:09:48.143Z,13.49
2023-03-05T10:14:43.287Z,14.60
2023-03-05T10:19:51.952Z,14.90
2023-03-05T10:24:57.739Z,14.91
2023-03-05T10:30:07.459Z,14.61
2023-03-05T10:35:15.635Z,15.02
2023-03-05T10:40:20.121Z,15.14
2023-03-05T10:45:18.719Z,15.11
2023-03-05T10:50:19.087Z,15.10
2023-03-05T10:55:17.845Z,15.21
2023-03-05T11:00:21.459Z,15.45
2023-03-05T11:05:40.245Z,15.46
2023-03-05T11:10:34.082Z,14.88
2023-03-05T11:15:32.226Z,15.15
2023-03-05T11:20:34.050Z,15.80
2023-03-05T11:25:27.368Z,16.02
2023-03-05T11:30:22.491Z,15.83
2023-03-05T11:35:32.889Z,15.84
2023-03-05T11:40:29.157Z,15.99
2023-03-05T11:45:26.224Z,16.01
2023-03-05T11:50:24.166Z,15.80
2023-03-05T11:55:20.657Z,16.00
2023-03-05T12:00:19.115Z,15.99
2023-03-05T12:05:16.341Z,16.10
2023-03-05T12:10:17.561Z,16.66
2023-03-05T12:15:35.043Z,16.92
2023-03-05T12:20:40.467Z,16.84
2023-03-05T12:25:35.286Z,17.29
2023-03-05T12:31:00.979Z,16.86
2023-03-05T12:35:54.402Z,16.60
2023-03-05T12:40:47.773Z,17.07
2023-03-05T12:45:43.842Z,16.69
2023-03-05T12:50:54.919Z,16.85
2023-03-05T12:55:57.826Z,16.81
2023-03-05T13:00:56.530Z,16.10
2023-03-05T13:05:52.156Z,16.28
2023-03-05T13:10:54.097Z,16.07
2023-03-05T13:15:54.876Z,15.26
2023-03-05T13:20:52.282Z,15.59
2023-03-05T13:25:46.667Z,16.29
2023-03-05T13:30:39.907Z,15.82
2023-03-05T13:35:35.211Z,15.35
2023-03-05T13:40:34.076Z,14.70
2023-03-05T13:45:30.163Z,14.53
2023-03-05T13:50:27.218Z,14.24
2023-03-05T13:55:28.688Z,14.39
2023-03-05T14:00:31.603Z,14.22
2023-03-05T14:05:26.374Z,14.05
2023-03-05T14:10:36.053Z,13.49
2023-03-05T14:15:31.919Z,13.12
2023-03-05T14:20:28.633Z,13.35
2023-03-05T14:25:33.980Z,13.76
2023-03-05T14:30:31.011Z,13.27
2023-03-05T14:35:26.833Z,12.52
2023-03-05T14:40:27.017Z,13.50
2023-03-05T14:45:23.830Z,12.27
2023-03-05T14:50:18.599Z,13.06
2023-03-05T14:55:19.140Z,13.18
2023-03-05T15:00:17.035Z,13.09
2023-03-05T15:05:11.950Z,12.90
2023-03-05T15:10:06.470Z,11.74
2023-03-05T15:14:59.897Z,12.86
2023-03-05T15:19:55.151Z,12.80
2023-03-05T15:24:49.874Z,12.49
2023-03-05T15:29:43.082Z,12.55
2023-03-05T15:34:36.567Z,12.13
2023-03-05T15:39:30.068Z,12.25
2023-03-05T15:44:25.473Z,11.44
2023-03-05T15:49:19.298Z,11.91
2023-03-05T15:54:12.852Z,11.25
2023-03-05T15:59:06.375Z,11.53
2023-03-05T16:04:01.087Z,11.48
2023-03-05T16:09:03.103Z,11.08
2023-03-05T16:14:37.992Z,11.20
2023-03-05T16:19:42.781Z,9.89
2023-03-05T16:25:01.181Z,9.56
2023-03-05T16:30:11.402Z,9.97
2023-03-05T16:41:11.248Z,9.39
2023-03-05T16:46:13.996Z,10.28
2023-03-05T16:52:17.720Z,10.20
2023-03-05T17:03:31.799Z,9.87
2023-03-05T17:08:30.714Z,9.55
2023-03-05T17:13:25.688Z,9.28
2023-03-05T17:19:28.725Z,9.60
2023-03-05T17:31:40.013Z,8.11
2023-03-05T17:49:17.244Z,8.86
2023-03-05T17:54:12.658Z,8.74
2023-03-05T17:59:13.552Z,7.36
2023-03-05T18:04:29.022Z,8.37
2023-03-05T18:16:43.477Z,8.23
2023-03-05T18:34:18.179Z,7.26
2023-03-05T18:39:25.514Z,7.16
2023-03-05T18:50:18.039Z,6.77
2023-03-05T18:55:28.440Z,7.76
2023-03-05T19:00:31.911Z,7.52
2023-03-05T19:06:02.333Z,7.06
2023-03-05T19:12:17.634Z,6.68
2023-03-05T19:17:34.992Z,7.67
2023-03-05T19:22:32.858Z,7.61
2023-03-05T19:27:30.550Z,6.41
2023-03-05T19:32:37.915Z,7.56
2023-03-05T19:37:33.320Z,6.14
2023-03-05T19:42:28.780Z,6.09
2023-03-05T19:47:49.828Z,6.15
2023-03-05T19:52:47.522Z,6.02
2023-03-05T19:57:42.525Z,6.71
2023-03-05T20:02:38.658Z,7.19
2023-03-05T20:07:37.048Z,7.08
2023-03-05T20:12:30.749Z,5.96
2023-03-05T20:17:28.608Z,5.81
2023-03-05T20:22:23.203Z,6.48
2023-03-05T20:27:20.252Z,6.50
2023-03-05T20:32:15.236Z,6.28
2023-03-05T20:37:10.008Z,5.56
2023-03-05T20:42:07.625Z,6.29
2023-03-05T20:47:44.782Z,6.56
2023-03-05T20:52:46.017Z,5.29
2023-03-05T20:58:16.424Z,6.63
2023-03-05T21:10:27.201Z,6.16
2023-03-05T21:40:12.503Z,5.71
2023-03-05T21:45:40.635Z,6.13
2023-03-05T21:51:10.774Z,5.34
2023-03-05T21:57:19.257Z,6.64
2023-03-05T22:03:16.610Z,5.71
2023-03-05T22:08:36.536Z,5.33
2023-03-05T22:14:06.030Z,6.57
2023-03-05T22:25:46.759Z,5.72
2023-03-05T22:32:05.307Z,7.11
2023-03-05T22:37:56.775Z,6.19
2023-03-05T22:44:37.436Z,7.06
2023-03-05T23:22:13.033Z,4.85
2023-03-05T23:48:15.769Z,6.29
